Latest Weather Observations for Samuel Hill

IDQ60801

Issued at 2:05 pm EST Saturday 2 August 2014 (issued every 30 minutes, with the page automatically refreshed every 10 minutes)

About weather observations | Map of weather stations | Latest weather observations for QLD | Other Formats
Station Details ID: 033308 Name: SAMUEL HILL AERO Lat: -22.74 Lon: 150.66 Height: 31.0 m
Data from the previous 72 hours. | See also: Recent months at Samuel Hill
Date/Time
EST
Temp
°C
App
Temp
°C
Dew
Point
Rel
Hum
%
Delta-T
°C
Wind Press
QNH
hPa
Press
MSL
hPa
Rain
since 9 am
mm
Dir
 
Spd
km/h
Gust
km/h
Spd
kts
Gust
kts
02/02:00pm 22.6 19.3 8.0 39 7.7 ESE 15 24 8 13 1019.0 - 0.0
02/01:30pm 22.8 19.1 8.1 39 7.7 ESE 17 30 9 16 1019.1 - 0.0
02/01:00pm 22.8 19.4 7.8 38 7.9 ESE 15 22 8 12 1019.4 - 0.0
02/12:30pm 22.4 18.7 6.2 35 8.2 SE 15 24 8 13 1019.8 - 0.0
02/12:00pm 22.1 18.9 8.6 42 7.1 SSE 15 20 8 11 1020.3 1020.3 0.0
02/11:30am 22.5 19.8 9.0 42 7.2 SE 13 22 7 12 1020.6 - 0.0
02/11:00am 21.6 18.9 8.8 44 6.8 SSE 13 22 7 12 1020.9 - 0.0
02/10:30am 20.6 17.1 7.2 42 6.9 SSE 15 22 8 12 1021.2 - 0.0
02/10:00am 19.7 15.3 6.4 42 6.7 S 19 28 10 15 1021.5 - 0.0
02/09:30am 19.7 15.6 6.4 42 6.7 S 17 24 9 13 1021.4 - 0.0
02/09:00am 19.2 16.6 7.9 48 5.8 S 11 19 6 10 1021.2 1021.2 0.2
02/08:30am 18.2 15.7 9.8 58 4.4 SSW 13 19 7 10 1020.8 - 0.2
02/08:00am 17.4 16.7 13.3 77 2.3 SSW 9 13 5 7 1020.5 - 0.2
02/07:30am 16.5 16.1 14.2 86 1.3 S 9 13 5 7 1020.2 - 0.2
02/07:09am 15.9 15.7 14.8 93 0.6 SSW 9 13 5 7 1019.9 - 0.2
02/07:00am 15.9 16.4 15.1 95 0.5 S 6 11 3 6 1019.9 - 0.2
02/06:49am 16.0 16.6 15.4 96 0.3 S 6 9 3 5 1019.8 - 0.2
02/06:30am 16.0 16.1 15.4 96 0.3 S 9 15 5 8 1019.6 - 0.2
02/06:19am 16.1 16.2 15.5 96 0.3 SSW 9 13 5 7 1019.3 - 0.2
02/06:00am 15.9 17.6 15.3 96 0.3 CALM 0 11 0 6 1018.9 1018.9 0.2
02/05:30am 16.4 18.4 15.9 97 0.3 CALM 0 0 0 0 1018.6 - 0.2
02/05:23am 16.7 18.8 16.2 97 0.3 CALM 0 4 0 2 1018.5 - 0.2
02/05:06am 16.9 17.7 16.4 97 0.3 SW 7 11 4 6 1018.4 - 0.2
02/05:00am 16.7 17.4 16.2 97 0.3 SW 7 11 4 6 1018.4 - 0.2
02/04:41am 16.4 16.7 15.9 97 0.3 WSW 9 13 5 7 1018.0 - 0.2
02/04:30am 15.9 16.5 15.4 97 0.3 SSW 6 9 3 5 1017.9 - 0.2
02/04:00am 15.4 17.0 14.9 97 0.3 CALM 0 0 0 0 1016.6 - 0.2
02/03:30am 15.5 16.7 15.0 97 0.3 E 2 6 1 3 1016.7 - 0.2
02/03:00am 15.3 16.9 14.8 97 0.3 CALM 0 2 0 1 1016.9 1016.8 0.2
02/02:30am 15.2 16.7 14.7 97 0.3 CALM 0 0 0 0 1017.0 - 0.2
02/02:00am 15.0 16.4 14.5 97 0.3 CALM 0 0 0 0 1017.4 - 0.2
02/01:30am 14.6 15.9 14.1 97 0.3 CALM 0 0 0 0 1017.6 - 0.2
02/01:00am 14.3 15.5 13.8 97 0.3 CALM 0 0 0 0 1017.8 - 0.2
02/12:30am 13.8 14.8 13.2 96 0.3 CALM 0 0 0 0 1018.0 - 0.2
02/12:00am 14.3 14.1 13.7 96 0.3 WNW 7 11 4 6 1018.0 1018.0 0.0
 
Date/Time
EST
Temp
°C
App
Temp
°C
Dew
Point
Rel
Hum
%
Delta-T
°C
Wind Press
QNH
hPa
Press
MSL
hPa
Rain
since 9 am
mm
Dir
 
Spd
km/h
Gust
km/h
Spd
kts
Gust
kts
01/11:30pm 14.1 15.2 13.5 96 0.3 CALM 0 0 0 0 1018.0 - 0.0
01/11:00pm 13.2 13.5 12.1 93 0.6 E 2 7 1 4 1018.0 - 0.0
01/10:52pm 13.1 12.6 12.0 93 0.6 SSE 6 9 3 5 1018.0 - 0.0
01/10:30pm 13.5 13.9 12.4 93 0.6 W 2 7 1 4 1018.0 - 0.0
01/10:27pm 13.5 13.9 12.4 93 0.6 W 2 7 1 4 1018.0 - 0.0
01/10:00pm 13.9 13.6 12.8 93 0.6 W 6 6 3 3 1017.9 - 0.0
01/09:53pm 13.9 14.4 12.8 93 0.6 W 2 6 1 3 1017.9 - 0.0
01/09:30pm 13.9 14.7 12.5 91 0.8 CALM 0 0 0 0 1017.8 - 0.0
01/09:09pm 14.0 14.8 12.6 91 0.8 CALM 0 0 0 0 1017.9 - 0.0
01/09:00pm 14.6 15.6 13.3 92 0.7 CALM 0 0 0 0 1018.0 1018.0 0.0
01/08:58pm 14.7 15.8 13.4 92 0.7 CALM 0 0 0 0 1017.9 - 0.0
01/08:44pm 15.0 16.2 13.9 93 0.6 CALM 0 0 0 0 1017.9 - 0.0
01/08:39pm 14.7 15.7 13.2 91 0.8 CALM 0 0 0 0 1017.9 - 0.0
01/08:30pm 15.0 16.2 13.7 92 0.7 CALM 0 0 0 0 1017.9 - 0.0
01/08:28pm 15.1 16.4 14.0 93 0.6 CALM 0 0 0 0 1017.9 - 0.0
01/08:01pm 15.9 17.5 14.8 93 0.6 CALM 0 0 0 0 1017.6 - 0.0
01/08:00pm 16.0 17.6 14.9 93 0.6 CALM 0 0 0 0 1017.6 - 0.0
01/07:57pm 15.9 17.4 14.6 92 0.7 CALM 0 0 0 0 1017.5 - 0.0
01/07:38pm 16.2 16.8 14.2 88 1.1 W 4 7 2 4 1017.4 - 0.0
01/07:30pm 17.1 18.2 15.6 91 0.9 NW 4 7 2 4 1017.2 - 0.0
01/07:00pm 17.1 17.9 14.9 87 1.3 NNW 4 9 2 5 1016.6 - 0.0
01/06:30pm 17.8 18.0 14.7 82 1.8 NNE 7 7 4 4 1016.1 - 0.0
01/06:00pm 19.7 20.2 15.6 77 2.4 NW 7 9 4 5 1015.8 1015.7 0.0
01/05:30pm 20.9 21.3 15.4 71 3.3 N 7 9 4 5 1015.4 - 0.0
01/05:00pm 22.5 22.4 14.9 62 4.5 N 9 20 5 11 1015.1 - 0.0
01/04:30pm 22.5 22.1 15.1 63 4.4 NNW 11 17 6 9 1014.9 - 0.0
01/04:00pm 23.6 22.9 15.4 60 4.9 NNW 13 20 7 11 1014.8 - 0.0
01/03:30pm 24.0 23.2 15.2 58 5.3 NNW 13 20 7 11 1014.8 - 0.0
01/03:17pm 24.0 25.1 17.0 65 4.3 N 7 11 4 6 1014.8 - 0.0
01/03:04pm 22.7 23.1 16.3 67 3.9 N 9 15 5 8 1015.0 - 0.0
01/03:00pm 22.7 23.1 16.3 67 3.9 N 9 15 5 8 1015.0 1014.9 0.0
01/02:30pm 22.6 22.9 15.9 66 4.0 NNW 9 13 5 7 1015.3 - 0.0
01/02:21pm 22.7 22.6 16.0 66 4.1 NNW 11 19 6 10 1015.4 - 0.0
01/02:07pm 23.0 22.0 15.6 63 4.4 NNW 15 20 8 11 1015.5 - 0.0
01/02:00pm 23.2 22.5 15.5 62 4.6 NNW 13 20 7 11 1015.6 - 0.0
01/01:30pm 23.2 23.1 16.0 64 4.4 NNW 11 19 6 10 1015.8 - 0.0
01/01:00pm 23.7 23.6 17.0 66 4.1 NNW 13 24 7 13 1016.1 - 0.0
01/12:30pm 22.9 22.5 16.2 66 4.1 NNW 13 20 7 11 1016.7 - 0.0
01/12:00pm 25.0 24.8 16.7 60 5.1 NNW 13 20 7 11 1017.0 1016.9 0.0
01/11:30am 23.9 24.0 16.4 63 4.6 NW 11 17 6 9 1017.6 - 0.0
01/11:00am 23.3 23.4 16.4 65 4.2 NNW 11 19 6 10 1018.1 - 0.0
01/10:30am 23.2 24.5 17.6 71 3.5 N 7 13 4 7 1018.5 - 0.0
01/10:00am 21.8 23.7 17.6 77 2.6 WSW 4 7 2 4 1018.8 - 0.0
01/09:30am 19.6 22.4 17.9 90 1.0 CALM 0 0 0 0 1019.0 - 0.0
01/09:21am 18.9 21.5 17.6 92 0.8 CALM 0 0 0 0 1019.1 - 0.0
01/09:00am 17.6 19.9 16.8 95 0.5 CALM 0 0 0 0 1019.0 1019.0 0.0
01/08:30am 16.2 18.0 15.6 96 0.4 CALM 0 0 0 0 1018.8 - 0.0
01/08:13am 15.4 17.0 14.8 96 0.3 CALM 0 0 0 0 1018.7 - 0.0
01/08:00am 15.0 16.4 14.4 96 0.3 CALM 0 0 0 0 1018.6 - 0.0
01/07:44am 14.5 15.7 13.9 96 0.3 CALM 0 2 0 1 1018.4 - 0.0
01/07:30am 14.0 15.1 13.4 96 0.3 CALM 0 0 0 0 1018.3 - 0.0
01/07:09am 13.5 14.0 12.9 96 0.3 ENE 2 7 1 4 1018.1 - 0.0
01/07:00am 13.3 13.8 12.7 96 0.3 SW 2 9 1 5 1017.9 - 0.0
01/06:30am 12.6 13.2 11.8 95 0.4 CALM 0 0 0 0 1017.8 - 0.0
01/06:14am 12.5 13.0 11.7 95 0.4 CALM 0 0 0 0 1017.7 - 0.0
01/06:00am 12.4 12.9 11.6 95 0.4 CALM 0 0 0 0 1017.6 1017.6 0.0
01/05:31am 12.2 12.6 11.1 93 0.6 CALM 0 0 0 0 1017.5 - 0.0
01/05:30am 12.2 12.6 11.1 93 0.6 CALM 0 0 0 0 1017.5 - 0.0
01/05:22am 12.4 12.8 11.3 93 0.6 CALM 0 0 0 0 1017.4 - 0.0
01/05:00am 12.5 13.0 11.6 94 0.5 CALM 0 0 0 0 1017.2 - 0.0
01/04:54am 12.7 13.2 11.6 93 0.6 CALM 0 0 0 0 1017.2 - 0.0
01/04:36am 12.7 13.2 11.6 93 0.6 CALM 0 0 0 0 1017.2 - 0.0
01/04:30am 12.7 13.2 11.6 93 0.6 CALM 0 0 0 0 1017.1 - 0.0
01/04:00am 13.6 14.4 12.5 93 0.6 CALM 0 0 0 0 1017.1 - 0.0
01/03:55am 13.6 14.4 12.5 93 0.6 CALM 0 0 0 0 1017.1 - 0.0
01/03:34am 13.8 14.6 12.7 93 0.6 CALM 0 0 0 0 1017.1 - 0.0
01/03:30am 13.8 14.6 12.7 93 0.6 CALM 0 0 0 0 1017.1 - 0.0
01/03:13am 14.0 14.9 12.9 93 0.6 CALM 0 0 0 0 1017.2 - 0.0
01/03:00am 14.0 14.9 12.9 93 0.6 CALM 0 0 0 0 1017.3 1017.3 0.0
01/02:30am 14.5 15.6 13.4 93 0.6 CALM 0 0 0 0 1017.5 - 0.0
01/02:27am 14.5 15.6 13.5 94 0.6 CALM 0 0 0 0 1017.5 - 0.0
01/02:00am 14.7 15.7 13.2 91 0.8 CALM 0 0 0 0 1017.7 - 0.0
01/01:37am 15.8 17.3 14.7 93 0.6 CALM 0 0 0 0 1017.8 - 0.0
01/01:30am 15.9 17.5 14.9 94 0.6 CALM 0 0 0 0 1017.8 - 0.0
01/01:00am 16.2 17.9 15.1 93 0.6 CALM 0 0 0 0 1018.0 - 0.0
01/12:30am 16.4 18.2 15.4 94 0.6 CALM 0 0 0 0 1018.3 - 0.0
01/12:00am 16.5 18.4 15.7 95 0.5 CALM 0 0 0 0 1018.2 1018.2 0.0
 
Date/Time
EST
Temp
°C
App
Temp
°C
Dew
Point
Rel
Hum
%
Delta-T
°C
Wind Press
QNH
hPa
Press
MSL
hPa
Rain
since 9 am
mm
Dir
 
Spd
km/h
Gust
km/h
Spd
kts
Gust
kts
31/11:30pm 16.1 17.7 15.0 93 0.6 CALM 0 0 0 0 1018.2 - 0.0
31/11:00pm 16.2 17.8 14.9 92 0.7 CALM 0 0 0 0 1018.2 - 0.0
31/10:30pm 16.9 18.8 15.8 93 0.6 CALM 0 0 0 0 1018.3 - 0.0
31/10:00pm 17.2 19.2 16.1 93 0.7 CALM 0 0 0 0 1018.5 - 0.0
31/09:30pm 17.2 19.2 15.9 92 0.8 CALM 0 0 0 0 1018.6 - 0.0
31/09:00pm 17.6 19.6 16.1 91 0.9 CALM 0 0 0 0 1018.6 1018.6 0.0
31/08:30pm 17.9 20.1 16.6 92 0.8 CALM 0 0 0 0 1018.5 - 0.0
31/08:00pm 18.0 20.2 16.5 91 0.9 CALM 0 0 0 0 1018.4 - 0.0
31/07:30pm 18.2 20.4 16.5 90 1.0 CALM 0 0 0 0 1018.4 - 0.0
31/07:00pm 18.4 20.7 16.7 90 1.0 CALM 0 0 0 0 1017.9 - 0.0
31/06:30pm 18.6 20.8 16.4 87 1.3 CALM 0 0 0 0 1017.7 - 0.0
31/06:00pm 19.3 21.7 16.9 86 1.5 CALM 0 0 0 0 1017.6 1017.6 0.0
31/05:30pm 19.9 22.3 16.9 83 1.8 CALM 0 0 0 0 1017.6 - 0.0
31/05:00pm 20.3 22.7 17.1 82 2.0 CALM 0 6 0 3 1017.6 - 0.0
31/04:30pm 20.5 21.5 16.9 80 2.2 E 7 9 4 5 1017.4 - 0.0
31/04:00pm 20.8 21.3 16.6 77 2.5 E 9 15 5 8 1017.1 - 0.0
31/03:30pm 21.6 22.0 16.3 72 3.2 E 9 15 5 8 1017.1 - 0.0
31/03:00pm 21.8 21.9 15.6 68 3.7 E 9 13 5 7 1017.1 1017.0 0.0
31/02:30pm 22.0 22.0 15.1 65 4.1 E 9 13 5 7 1017.4 - 0.0
31/02:00pm 22.2 22.3 15.5 66 4.0 ENE 9 15 5 8 1017.6 - 0.0
31/01:30pm 22.5 22.1 15.1 63 4.4 ENE 11 17 6 9 1017.8 - 0.0
31/01:00pm 22.6 24.3 15.2 63 4.4 CALM 0 6 0 3 1018.2 - 0.0
31/12:30pm 22.4 23.3 16.0 67 3.9 SSE 6 7 3 4 1018.8 - 0.0
31/12:00pm 22.6 22.9 15.0 62 4.5 E 7 13 4 7 1019.4 1019.4 0.0
31/11:30am 23.1 22.2 14.9 60 4.9 E 13 24 7 13 1019.8 - 0.0
31/11:00am 21.8 22.1 16.1 70 3.4 ESE 9 15 5 8 1020.3 - 0.0
31/10:30am 22.3 23.0 17.0 72 3.3 ESE 9 15 5 8 1020.6 - 0.0
31/10:00am 21.2 21.8 16.8 76 2.7 SE 9 15 5 8 1021.1 - 0.0
31/09:30am 20.0 20.4 16.2 79 2.3 SSE 9 13 5 7 1021.3 - 0.0
31/09:00am 18.7 19.6 16.5 87 1.3 SSE 7 11 4 6 1021.2 1021.2 0.0
31/08:30am 16.9 17.7 15.8 93 0.6 S 6 9 3 5 1021.2 - 0.0
31/08:14am 16.1 16.7 15.3 95 0.5 S 6 9 3 5 1021.1 - 0.0
31/08:00am 15.3 16.5 14.8 97 0.3 W 2 7 1 4 1021.0 - 0.0
31/07:40am 13.8 14.8 13.3 97 0.3 CALM 0 7 0 4 1021.0 - 0.0
31/07:30am 13.1 12.8 12.6 97 0.3 NNW 6 9 3 5 1020.9 - 0.0
31/07:00am 11.9 12.3 11.3 96 0.3 CALM 0 0 0 0 1020.5 - 0.0
31/06:30am 11.2 11.4 10.6 96 0.3 CALM 0 0 0 0 1020.3 - 0.0
31/06:00am 11.0 11.2 10.4 96 0.3 CALM 0 0 0 0 1020.0 1020.0 0.0
31/05:30am 10.7 10.8 10.1 96 0.3 CALM 0 0 0 0 1019.8 - 0.0
31/05:07am 10.4 10.4 9.8 96 0.3 CALM 0 0 0 0 1019.7 - 0.0
31/05:03am 10.4 10.4 9.8 96 0.3 CALM 0 0 0 0 1019.7 - 0.0
31/05:00am 10.4 10.4 9.8 96 0.3 CALM 0 0 0 0 1019.7 - 0.0
31/04:30am 10.2 10.1 9.6 96 0.3 CALM 0 0 0 0 1019.7 - 0.0
31/04:00am 9.9 9.8 9.3 96 0.3 CALM 0 0 0 0 1019.8 - 0.0
31/03:30am 9.9 9.8 9.3 96 0.3 CALM 0 0 0 0 1019.9 - 0.0
31/03:00am 10.1 10.0 9.5 96 0.3 CALM 0 0 0 0 1019.8 1019.8 0.0
31/02:30am 10.1 10.0 9.5 96 0.3 CALM 0 0 0 0 1020.1 - 0.0
31/02:00am 9.9 9.7 9.1 95 0.4 CALM 0 0 0 0 1020.3 - 0.0
31/01:56am 10.0 9.8 9.2 95 0.4 CALM 0 0 0 0 1020.3 - 0.0
31/01:50am 10.3 10.2 9.5 95 0.4 CALM 0 0 0 0 1020.3 - 0.0
31/01:30am 10.3 10.2 9.5 95 0.4 CALM 0 0 0 0 1020.5 - 0.0
31/01:00am 10.0 9.8 9.1 94 0.4 CALM 0 0 0 0 1020.6 - 0.0
31/12:52am 9.9 9.7 9.0 94 0.4 CALM 0 0 0 0 1020.7 - 0.0
31/12:48am 9.8 9.6 8.9 94 0.4 CALM 0 0 0 0 1020.7 - 0.0
31/12:45am 9.7 9.4 8.6 93 0.5 CALM 0 0 0 0 1020.7 - 0.0
31/12:30am 9.7 9.4 8.8 94 0.4 CALM 0 0 0 0 1020.7 - 0.0
31/12:20am 10.5 10.4 9.6 94 0.5 CALM 0 0 0 0 1020.7 - 0.0
31/12:00am 10.2 10.0 9.1 93 0.5 CALM 0 0 0 0 1020.8 1020.8 0.0
 
Date/Time
EST
Temp
°C
App
Temp
°C
Dew
Point
Rel
Hum
%
Delta-T
°C
Wind Press
QNH
hPa
Press
MSL
hPa
Rain
since 9 am
mm
Dir
 
Spd
km/h
Gust
km/h
Spd
kts
Gust
kts
30/11:30pm 10.2 10.0 9.1 93 0.5 CALM 0 0 0 0 1021.0 - 0.0
30/11:00pm 10.6 10.5 9.4 92 0.6 CALM 0 0 0 0 1021.1 - 0.0
30/10:30pm 10.8 10.7 9.6 92 0.6 CALM 0 0 0 0 1021.2 - 0.0
30/10:00pm 11.2 11.2 9.9 92 0.7 CALM 0 0 0 0 1021.2 - 0.0
30/09:30pm 11.2 11.2 9.8 91 0.7 CALM 0 0 0 0 1021.3 - 0.0
30/09:00pm 11.9 12.1 10.5 91 0.7 CALM 0 0 0 0 1021.2 1021.2 0.0
30/08:30pm 12.4 12.7 10.8 90 0.8 CALM 0 0 0 0 1021.2 - 0.0
30/08:00pm 12.9 13.3 11.3 90 0.8 CALM 0 0 0 0 1021.0 - 0.0
30/07:30pm 13.3 13.7 11.4 88 1.0 CALM 0 0 0 0 1020.8 - 0.0
30/07:00pm 14.2 14.9 12.1 87 1.1 CALM 0 0 0 0 1020.5 - 0.0
30/06:30pm 15.4 16.2 12.7 84 1.5 CALM 0 2 0 1 1020.2 - 0.0
30/06:00pm 16.5 16.2 12.8 79 2.0 NNE 6 7 3 4 1019.9 1019.9 0.0
30/05:30pm 19.0 18.8 13.6 71 3.1 E 7 11 4 6 1019.8 - 0.0
30/05:00pm 20.6 19.7 13.6 64 4.0 ENE 11 17 6 9 1019.7 - 0.0
30/04:30pm 21.6 20.1 13.0 58 4.9 E 13 19 7 10 1019.7 - 0.0
30/04:00pm 21.9 19.2 11.6 52 5.8 ENE 17 22 9 12 1019.2 - 0.0
30/03:30pm 23.4 21.6 10.8 45 7.0 ENE 11 20 6 11 1018.9 - 0.0
30/03:00pm 23.9 21.6 11.9 47 6.8 ENE 15 19 8 10 1019.0 1019.0 0.0
30/02:30pm 23.2 20.0 11.3 47 6.7 NE 19 30 10 16 1019.3 - 0.0

Other Formats:

Comma delimited format used in spreadsheet applications
http://www.bom.gov.au/fwo/IDQ60801/IDQ60801.94370.axf

JavaScript Object Notation format (JSON) in row-major order
http://www.bom.gov.au/fwo/IDQ60801/IDQ60801.94370.json